sensor_id;sensor_type;location;lat;lon;timestamp;P1;durP1;ratioP1;P2;durP2;ratioP2
15408;SDS011;7803;48.130;13.788;2022-10-16T00:40:06;26.27;;;23.52;;
15408;SDS011;7803;48.130;13.788;2022-10-16T00:43:12;25.27;;;22.58;;
15408;SDS011;7803;48.130;13.788;2022-10-16T00:46:16;25.58;;;22.95;;
15408;SDS011;7803;48.130;13.788;2022-10-16T00:49:21;28.60;;;25.13;;
15408;SDS011;7803;48.130;13.788;2022-10-16T00:52:23;27.70;;;25.00;;
15408;SDS011;7803;48.130;13.788;2022-10-16T00:55:26;28.23;;;25.15;;
15408;SDS011;7803;48.130;13.788;2022-10-16T00:58:30;26.17;;;23.55;;
15408;SDS011;7803;48.130;13.788;2022-10-16T01:01:32;26.50;;;23.80;;
15408;SDS011;7803;48.130;13.788;2022-10-16T01:04:35;27.23;;;24.17;;
15408;SDS011;7803;48.130;13.788;2022-10-16T01:07:41;27.08;;;23.92;;
15408;SDS011;7803;48.130;13.788;2022-10-16T01:10:52;26.80;;;24.02;;
15408;SDS011;7803;48.130;13.788;2022-10-16T01:13:59;26.17;;;23.55;;
15408;SDS011;7803;48.130;13.788;2022-10-16T01:17:08;26.60;;;23.98;;
15408;SDS011;7803;48.130;13.788;2022-10-16T01:20:15;26.38;;;23.58;;
15408;SDS011;7803;48.130;13.788;2022-10-16T01:23:29;26.42;;;23.58;;
15408;SDS011;7803;48.130;13.788;2022-10-16T01:30:16;23.70;;;21.40;;
15408;SDS011;7803;48.130;13.788;2022-10-16T01:33:22;24.13;;;21.60;;
15408;SDS011;7803;48.130;13.788;2022-10-16T01:36:31;24.60;;;21.95;;
15408;SDS011;7803;48.130;13.788;2022-10-16T01:39:39;23.58;;;21.13;;
15408;SDS011;7803;48.130;13.788;2022-10-16T01:42:46;23.33;;;20.85;;
15408;SDS011;7803;48.130;13.788;2022-10-16T01:45:52;24.00;;;21.60;;
15408;SDS011;7803;48.130;13.788;2022-10-16T01:48:54;24.52;;;21.80;;
15408;SDS011;7803;48.130;13.788;2022-10-16T01:51:58;24.55;;;21.92;;
15408;SDS011;7803;48.130;13.788;2022-10-16T04:36:47;17.83;;;16.13;;
15408;SDS011;7803;48.130;13.788;2022-10-16T04:39:49;17.98;;;16.27;;
15408;SDS011;7803;48.130;13.788;2022-10-16T04:42:51;18.65;;;16.85;;
15408;SDS011;7803;48.130;13.788;2022-10-16T04:45:53;18.15;;;16.45;;
15408;SDS011;7803;48.130;13.788;2022-10-16T04:48:56;18.25;;;16.45;;
15408;SDS011;7803;48.130;13.788;2022-10-16T04:52:00;17.40;;;15.73;;
15408;SDS011;7803;48.130;13.788;2022-10-16T04:55:02;17.27;;;15.57;;
15408;SDS011;7803;48.130;13.788;2022-10-16T04:58:05;17.17;;;15.57;;
15408;SDS011;7803;48.130;13.788;2022-10-16T05:01:07;16.85;;;15.25;;
15408;SDS011;7803;48.130;13.788;2022-10-16T05:04:09;17.52;;;15.82;;
15408;SDS011;7803;48.130;13.788;2022-10-16T05:07:12;16.75;;;15.15;;
15408;SDS011;7803;48.130;13.788;2022-10-16T05:10:14;16.45;;;14.85;;
15408;SDS011;7803;48.130;13.788;2022-10-16T05:13:17;16.50;;;14.90;;
15408;SDS011;7803;48.130;13.788;2022-10-16T05:16:19;17.45;;;15.75;;
15408;SDS011;7803;48.130;13.788;2022-10-16T05:19:21;16.20;;;14.60;;
15408;SDS011;7803;48.130;13.788;2022-10-16T05:22:24;15.95;;;14.45;;
15408;SDS011;7803;48.130;13.788;2022-10-16T05:25:26;16.75;;;15.15;;
15408;SDS011;7803;48.130;13.788;2022-10-16T05:28:28;15.95;;;14.35;;
15408;SDS011;7803;48.130;13.788;2022-10-16T05:31:31;16.38;;;14.77;;
15408;SDS011;7803;48.130;13.788;2022-10-16T05:34:33;15.77;;;14.30;;
15408;SDS011;7803;48.130;13.788;2022-10-16T05:37:36;15.57;;;14.07;;
15408;SDS011;7803;48.130;13.788;2022-10-16T05:40:38;16.73;;;15.00;;
15408;SDS011;7803;48.130;13.788;2022-10-16T05:43:40;16.10;;;14.50;;
15408;SDS011;7803;48.130;13.788;2022-10-16T05:46:42;15.80;;;14.30;;
15408;SDS011;7803;48.130;13.788;2022-10-16T05:49:44;15.60;;;14.10;;
15408;SDS011;7803;48.130;13.788;2022-10-16T05:52:48;15.25;;;13.85;;
15408;SDS011;7803;48.130;13.788;2022-10-16T05:55:51;14.77;;;13.27;;
15408;SDS011;7803;48.130;13.788;2022-10-16T05:58:53;14.93;;;13.52;;
15408;SDS011;7803;48.130;13.788;2022-10-16T06:01:56;15.70;;;14.20;;
15408;SDS011;7803;48.130;13.788;2022-10-16T06:04:58;15.32;;;13.82;;
15408;SDS011;7803;48.130;13.788;2022-10-16T06:08:01;14.52;;;13.18;;
15408;SDS011;7803;48.130;13.788;2022-10-16T06:11:04;14.98;;;13.57;;
15408;SDS011;7803;48.130;13.788;2022-10-16T06:14:08;14.70;;;13.30;;
15408;SDS011;7803;48.130;13.788;2022-10-16T06:17:10;14.88;;;13.48;;
15408;SDS011;7803;48.130;13.788;2022-10-16T06:20:12;14.00;;;12.70;;
15408;SDS011;7803;48.130;13.788;2022-10-16T06:23:15;15.02;;;13.57;;
15408;SDS011;7803;48.130;13.788;2022-10-16T06:26:18;14.82;;;13.43;;
15408;SDS011;7803;48.130;13.788;2022-10-16T06:29:21;15.10;;;13.60;;
15408;SDS011;7803;48.130;13.788;2022-10-16T06:32:23;14.82;;;13.23;;
15408;SDS011;7803;48.130;13.788;2022-10-16T06:35:25;13.90;;;12.50;;
15408;SDS011;7803;48.130;13.788;2022-10-16T06:38:30;14.68;;;13.30;;
15408;SDS011;7803;48.130;13.788;2022-10-16T06:41:33;14.32;;;12.93;;
15408;SDS011;7803;48.130;13.788;2022-10-16T06:44:35;14.13;;;12.80;;
15408;SDS011;7803;48.130;13.788;2022-10-16T06:47:37;14.00;;;12.70;;
15408;SDS011;7803;48.130;13.788;2022-10-16T06:50:39;13.35;;;12.05;;
15408;SDS011;7803;48.130;13.788;2022-10-16T06:53:43;13.88;;;12.57;;
15408;SDS011;7803;48.130;13.788;2022-10-16T06:56:47;13.68;;;12.38;;
15408;SDS011;7803;48.130;13.788;2022-10-16T06:59:49;13.30;;;12.10;;
15408;SDS011;7803;48.130;13.788;2022-10-16T07:02:51;13.05;;;11.88;;
15408;SDS011;7803;48.130;13.788;2022-10-16T07:05:53;13.50;;;12.20;;
15408;SDS011;7803;48.130;13.788;2022-10-16T07:08:57;13.80;;;12.50;;
15408;SDS011;7803;48.130;13.788;2022-10-16T07:11:59;13.18;;;11.98;;
15408;SDS011;7803;48.130;13.788;2022-10-16T07:15:01;13.13;;;11.93;;
15408;SDS011;7803;48.130;13.788;2022-10-16T07:18:03;12.98;;;11.68;;
15408;SDS011;7803;48.130;13.788;2022-10-16T07:21:06;13.30;;;12.10;;
15408;SDS011;7803;48.130;13.788;2022-10-16T07:24:12;12.45;;;11.35;;
15408;SDS011;7803;48.130;13.788;2022-10-16T07:27:15;13.10;;;11.90;;
15408;SDS011;7803;48.130;13.788;2022-10-16T07:30:17;13.30;;;12.00;;
15408;SDS011;7803;48.130;13.788;2022-10-16T07:33:19;12.77;;;11.57;;
15408;SDS011;7803;48.130;13.788;2022-10-16T07:36:22;12.38;;;11.07;;
15408;SDS011;7803;48.130;13.788;2022-10-16T07:39:25;13.07;;;11.88;;
15408;SDS011;7803;48.130;13.788;2022-10-16T07:42:27;12.48;;;11.27;;
15408;SDS011;7803;48.130;13.788;2022-10-16T07:45:29;12.65;;;11.45;;
15408;SDS011;7803;48.130;13.788;2022-10-16T07:48:32;13.25;;;11.95;;
15408;SDS011;7803;48.130;13.788;2022-10-16T07:51:35;12.43;;;11.32;;
15408;SDS011;7803;48.130;13.788;2022-10-16T07:54:39;12.80;;;11.57;;
15408;SDS011;7803;48.130;13.788;2022-10-16T07:57:41;13.35;;;12.05;;
15408;SDS011;7803;48.130;13.788;2022-10-16T08:00:43;13.07;;;11.88;;
15408;SDS011;7803;48.130;13.788;2022-10-16T08:03:46;13.20;;;11.98;;
15408;SDS011;7803;48.130;13.788;2022-10-16T08:06:49;13.15;;;11.93;;
15408;SDS011;7803;48.130;13.788;2022-10-16T08:09:53;13.48;;;12.18;;
15408;SDS011;7803;48.130;13.788;2022-10-16T08:12:56;13.20;;;11.90;;
15408;SDS011;7803;48.130;13.788;2022-10-16T08:15:59;12.98;;;11.68;;
15408;SDS011;7803;48.130;13.788;2022-10-16T08:19:01;13.02;;;11.82;;
15408;SDS011;7803;48.130;13.788;2022-10-16T08:22:03;13.50;;;12.10;;
15408;SDS011;7803;48.130;13.788;2022-10-16T08:25:07;13.13;;;11.93;;
15408;SDS011;7803;48.130;13.788;2022-10-16T08:28:10;13.05;;;11.77;;
15408;SDS011;7803;48.130;13.788;2022-10-16T08:31:12;13.40;;;12.15;;
15408;SDS011;7803;48.130;13.788;2022-10-16T08:34:16;12.90;;;11.60;;
15408;SDS011;7803;48.130;13.788;2022-10-16T08:37:18;12.82;;;11.63;;
15408;SDS011;7803;48.130;13.788;2022-10-16T08:40:23;13.32;;;12.00;;
15408;SDS011;7803;48.130;13.788;2022-10-16T08:43:39;13.52;;;12.23;;
15408;SDS011;7803;48.130;13.788;2022-10-16T08:46:54;13.82;;;12.48;;
15408;SDS011;7803;48.130;13.788;2022-10-16T08:50:08;12.52;;;11.32;;
15408;SDS011;7803;48.130;13.788;2022-10-16T08:53:14;13.20;;;12.00;;
15408;SDS011;7803;48.130;13.788;2022-10-16T08:56:20;13.50;;;12.10;;
15408;SDS011;7803;48.130;13.788;2022-10-16T08:59:23;13.18;;;11.80;;
15408;SDS011;7803;48.130;13.788;2022-10-16T09:02:26;14.13;;;12.73;;
15408;SDS011;7803;48.130;13.788;2022-10-16T09:05:44;15.43;;;13.85;;
15408;SDS011;7803;48.130;13.788;2022-10-16T09:09:06;19.75;;;16.85;;
15408;SDS011;7803;48.130;13.788;2022-10-16T09:12:33;48.38;;;35.53;;
15408;SDS011;7803;48.130;13.788;2022-10-16T09:15:43;18.30;;;16.20;;
15408;SDS011;7803;48.130;13.788;2022-10-16T09:18:52;16.88;;;13.80;;
15408;SDS011;7803;48.130;13.788;2022-10-16T09:22:00;13.07;;;11.68;;
15408;SDS011;7803;48.130;13.788;2022-10-16T09:25:11;10.55;;;9.48;;
15408;SDS011;7803;48.130;13.788;2022-10-16T09:28:23;10.75;;;9.20;;
15408;SDS011;7803;48.130;13.788;2022-10-16T09:31:25;9.18;;;8.07;;
15408;SDS011;7803;48.130;13.788;2022-10-16T09:34:29;8.23;;;6.97;;
15408;SDS011;7803;48.130;13.788;2022-10-16T09:37:33;6.88;;;6.18;;
15408;SDS011;7803;48.130;13.788;2022-10-16T09:40:35;7.30;;;5.50;;
15408;SDS011;7803;48.130;13.788;2022-10-16T09:43:40;5.40;;;4.85;;
15408;SDS011;7803;48.130;13.788;2022-10-16T09:46:48;4.20;;;3.80;;
15408;SDS011;7803;48.130;13.788;2022-10-16T09:49:50;4.07;;;3.60;;
15408;SDS011;7803;48.130;13.788;2022-10-16T09:53:03;3.47;;;3.17;;
15408;SDS011;7803;48.130;13.788;2022-10-16T09:56:06;3.53;;;2.60;;
15408;SDS011;7803;48.130;13.788;2022-10-16T09:59:12;3.38;;;2.72;;
15408;SDS011;7803;48.130;13.788;2022-10-16T10:02:15;2.92;;;2.70;;
15408;SDS011;7803;48.130;13.788;2022-10-16T10:05:20;3.00;;;2.70;;
15408;SDS011;7803;48.130;13.788;2022-10-16T10:08:24;2.80;;;2.60;;
15408;SDS011;7803;48.130;13.788;2022-10-16T10:11:42;2.67;;;2.42;;
15408;SDS011;7803;48.130;13.788;2022-10-16T10:14:49;2.45;;;2.25;;
15408;SDS011;7803;48.130;13.788;2022-10-16T10:17:53;3.25;;;2.60;;
15408;SDS011;7803;48.130;13.788;2022-10-16T10:20:57;2.70;;;2.50;;
15408;SDS011;7803;48.130;13.788;2022-10-16T10:24:00;2.90;;;2.20;;
15408;SDS011;7803;48.130;13.788;2022-10-16T10:27:06;3.50;;;2.40;;
15408;SDS011;7803;48.130;13.788;2022-10-16T10:30:18;2.33;;;2.13;;
15408;SDS011;7803;48.130;13.788;2022-10-16T10:33:25;4.43;;;2.10;;
15408;SDS011;7803;48.130;13.788;2022-10-16T10:36:36;2.40;;;2.10;;
15408;SDS011;7803;48.130;13.788;2022-10-16T10:39:40;3.63;;;2.83;;
15408;SDS011;7803;48.130;13.788;2022-10-16T10:42:51;3.70;;;2.88;;
15408;SDS011;7803;48.130;13.788;2022-10-16T10:46:02;5.20;;;2.58;;
15408;SDS011;7803;48.130;13.788;2022-10-16T10:49:12;4.68;;;2.70;;
15408;SDS011;7803;48.130;13.788;2022-10-16T10:52:29;4.30;;;2.58;;
15408;SDS011;7803;48.130;13.788;2022-10-16T10:55:39;3.42;;;2.05;;
15408;SDS011;7803;48.130;13.788;2022-10-16T10:58:57;1.95;;;1.60;;
15408;SDS011;7803;48.130;13.788;2022-10-16T11:02:26;2.95;;;1.70;;
15408;SDS011;7803;48.130;13.788;2022-10-16T11:05:43;2.35;;;1.80;;
15408;SDS011;7803;48.130;13.788;2022-10-16T11:08:47;4.40;;;2.63;;
15408;SDS011;7803;48.130;13.788;2022-10-16T11:11:53;2.60;;;1.85;;
15408;SDS011;7803;48.130;13.788;2022-10-16T11:15:00;2.92;;;1.98;;
15408;SDS011;7803;48.130;13.788;2022-10-16T11:18:08;2.15;;;1.75;;
15408;SDS011;7803;48.130;13.788;2022-10-16T11:21:17;2.33;;;1.80;;
15408;SDS011;7803;48.130;13.788;2022-10-16T11:24:23;1.92;;;1.65;;
15408;SDS011;7803;48.130;13.788;2022-10-16T11:27:35;1.77;;;1.67;;
15408;SDS011;7803;48.130;13.788;2022-10-16T11:30:41;2.03;;;1.70;;
15408;SDS011;7803;48.130;13.788;2022-10-16T11:33:49;2.47;;;1.90;;
15408;SDS011;7803;48.130;13.788;2022-10-16T11:36:57;2.30;;;2.10;;
15408;SDS011;7803;48.130;13.788;2022-10-16T11:40:05;2.83;;;2.00;;
15408;SDS011;7803;48.130;13.788;2022-10-16T11:43:22;3.20;;;1.80;;
15408;SDS011;7803;48.130;13.788;2022-10-16T11:46:28;2.03;;;1.83;;
15408;SDS011;7803;48.130;13.788;2022-10-16T11:49:34;2.95;;;1.80;;
15408;SDS011;7803;48.130;13.788;2022-10-16T11:52:39;3.70;;;2.05;;
15408;SDS011;7803;48.130;13.788;2022-10-16T11:55:48;2.53;;;2.10;;
15408;SDS011;7803;48.130;13.788;2022-10-16T11:58:52;2.53;;;2.10;;
15408;SDS011;7803;48.130;13.788;2022-10-16T12:02:02;3.83;;;2.08;;
15408;SDS011;7803;48.130;13.788;2022-10-16T12:05:22;3.03;;;2.15;;
15408;SDS011;7803;48.130;13.788;2022-10-16T12:08:29;2.83;;;2.20;;
15408;SDS011;7803;48.130;13.788;2022-10-16T12:11:35;4.68;;;2.53;;
15408;SDS011;7803;48.130;13.788;2022-10-16T12:14:39;2.92;;;2.30;;
15408;SDS011;7803;48.130;13.788;2022-10-16T12:17:41;2.65;;;2.05;;
15408;SDS011;7803;48.130;13.788;2022-10-16T12:20:44;2.30;;;2.10;;
15408;SDS011;7803;48.130;13.788;2022-10-16T12:24:02;2.95;;;2.00;;
15408;SDS011;7803;48.130;13.788;2022-10-16T12:27:06;3.03;;;2.28;;
15408;SDS011;7803;48.130;13.788;2022-10-16T12:30:25;3.58;;;2.35;;
15408;SDS011;7803;48.130;13.788;2022-10-16T12:33:29;3.70;;;2.33;;
15408;SDS011;7803;48.130;13.788;2022-10-16T12:36:33;4.47;;;2.30;;
15408;SDS011;7803;48.130;13.788;2022-10-16T12:39:36;3.28;;;2.63;;
15408;SDS011;7803;48.130;13.788;2022-10-16T12:42:38;2.45;;;2.20;;
15408;SDS011;7803;48.130;13.788;2022-10-16T12:45:41;5.88;;;3.50;;
15408;SDS011;7803;48.130;13.788;2022-10-16T12:48:43;2.47;;;2.28;;
15408;SDS011;7803;48.130;13.788;2022-10-16T12:51:49;3.22;;;2.28;;
15408;SDS011;7803;48.130;13.788;2022-10-16T12:54:51;2.67;;;2.40;;
15408;SDS011;7803;48.130;13.788;2022-10-16T12:58:05;2.50;;;2.30;;
15408;SDS011;7803;48.130;13.788;2022-10-16T13:01:19;3.15;;;2.30;;
15408;SDS011;7803;48.130;13.788;2022-10-16T13:04:44;2.63;;;2.40;;
15408;SDS011;7803;48.130;13.788;2022-10-16T13:08:01;3.33;;;2.53;;
15408;SDS011;7803;48.130;13.788;2022-10-16T13:11:16;2.70;;;2.33;;
15408;SDS011;7803;48.130;13.788;2022-10-16T13:14:35;3.55;;;2.22;;
15408;SDS011;7803;48.130;13.788;2022-10-16T13:17:53;2.28;;;2.00;;
15408;SDS011;7803;48.130;13.788;2022-10-16T13:21:08;3.97;;;2.60;;
15408;SDS011;7803;48.130;13.788;2022-10-16T13:24:24;3.25;;;2.40;;
15408;SDS011;7803;48.130;13.788;2022-10-16T13:27:39;2.40;;;2.20;;
15408;SDS011;7803;48.130;13.788;2022-10-16T13:30:51;4.55;;;2.33;;
15408;SDS011;7803;48.130;13.788;2022-10-16T13:33:55;2.95;;;2.65;;
15408;SDS011;7803;48.130;13.788;2022-10-16T13:36:59;4.05;;;2.60;;
15408;SDS011;7803;48.130;13.788;2022-10-16T13:40:11;2.92;;;2.47;;
15408;SDS011;7803;48.130;13.788;2022-10-16T13:43:22;2.55;;;2.35;;
15408;SDS011;7803;48.130;13.788;2022-10-16T13:46:29;3.15;;;2.50;;
15408;SDS011;7803;48.130;13.788;2022-10-16T13:49:34;4.93;;;2.63;;
15408;SDS011;7803;48.130;13.788;2022-10-16T13:52:36;2.60;;;2.40;;
15408;SDS011;7803;48.130;13.788;2022-10-16T13:55:39;3.38;;;2.40;;
15408;SDS011;7803;48.130;13.788;2022-10-16T13:58:42;3.70;;;2.40;;
15408;SDS011;7803;48.130;13.788;2022-10-16T14:01:44;3.05;;;2.75;;
15408;SDS011;7803;48.130;13.788;2022-10-16T14:04:46;2.80;;;2.42;;
15408;SDS011;7803;48.130;13.788;2022-10-16T14:07:50;2.42;;;2.22;;
15408;SDS011;7803;48.130;13.788;2022-10-16T14:10:56;2.50;;;2.20;;
15408;SDS011;7803;48.130;13.788;2022-10-16T14:14:00;2.40;;;2.20;;
15408;SDS011;7803;48.130;13.788;2022-10-16T14:17:03;2.70;;;2.13;;
15408;SDS011;7803;48.130;13.788;2022-10-16T14:20:05;2.65;;;1.98;;
15408;SDS011;7803;48.130;13.788;2022-10-16T14:23:19;2.53;;;2.00;;
15408;SDS011;7803;48.130;13.788;2022-10-16T14:26:25;4.05;;;2.20;;
15408;SDS011;7803;48.130;13.788;2022-10-16T14:29:29;3.58;;;2.00;;
15408;SDS011;7803;48.130;13.788;2022-10-16T14:32:32;3.03;;;2.15;;
15408;SDS011;7803;48.130;13.788;2022-10-16T14:35:34;3.45;;;2.40;;
15408;SDS011;7803;48.130;13.788;2022-10-16T14:38:38;3.30;;;2.10;;
15408;SDS011;7803;48.130;13.788;2022-10-16T14:41:43;2.03;;;1.88;;
15408;SDS011;7803;48.130;13.788;2022-10-16T14:44:48;2.10;;;1.90;;
15408;SDS011;7803;48.130;13.788;2022-10-16T14:47:53;2.28;;;2.08;;
15408;SDS011;7803;48.130;13.788;2022-10-16T14:50:57;2.22;;;2.03;;
15408;SDS011;7803;48.130;13.788;2022-10-16T14:53:59;2.85;;;2.20;;
15408;SDS011;7803;48.130;13.788;2022-10-16T14:57:03;2.85;;;2.30;;
15408;SDS011;7803;48.130;13.788;2022-10-16T15:00:08;4.63;;;2.47;;
15408;SDS011;7803;48.130;13.788;2022-10-16T15:03:16;6.75;;;2.30;;
15408;SDS011;7803;48.130;13.788;2022-10-16T15:06:18;2.40;;;2.05;;
15408;SDS011;7803;48.130;13.788;2022-10-16T15:09:20;3.45;;;1.90;;
15408;SDS011;7803;48.130;13.788;2022-10-16T15:12:23;2.88;;;2.38;;
15408;SDS011;7803;48.130;13.788;2022-10-16T15:15:33;2.60;;;2.03;;
15408;SDS011;7803;48.130;13.788;2022-10-16T15:18:37;3.55;;;2.25;;
15408;SDS011;7803;48.130;13.788;2022-10-16T15:21:40;2.97;;;2.08;;
15408;SDS011;7803;48.130;13.788;2022-10-16T15:24:42;3.10;;;2.10;;
15408;SDS011;7803;48.130;13.788;2022-10-16T15:27:46;3.40;;;1.77;;
15408;SDS011;7803;48.130;13.788;2022-10-16T15:30:48;2.97;;;1.92;;
15408;SDS011;7803;48.130;13.788;2022-10-16T15:33:51;2.55;;;2.10;;
15408;SDS011;7803;48.130;13.788;2022-10-16T15:36:58;5.00;;;2.15;;
15408;SDS011;7803;48.130;13.788;2022-10-16T15:40:04;3.17;;;1.80;;
15408;SDS011;7803;48.130;13.788;2022-10-16T15:43:08;2.45;;;1.83;;
15408;SDS011;7803;48.130;13.788;2022-10-16T15:46:11;2.65;;;1.98;;
15408;SDS011;7803;48.130;13.788;2022-10-16T15:49:14;2.67;;;1.90;;
15408;SDS011;7803;48.130;13.788;2022-10-16T15:52:16;2.40;;;1.83;;
15408;SDS011;7803;48.130;13.788;2022-10-16T15:55:18;3.45;;;2.50;;
15408;SDS011;7803;48.130;13.788;2022-10-16T15:58:22;3.17;;;2.22;;
15408;SDS011;7803;48.130;13.788;2022-10-16T16:01:24;2.47;;;1.95;;
15408;SDS011;7803;48.130;13.788;2022-10-16T16:04:29;2.72;;;2.40;;
15408;SDS011;7803;48.130;13.788;2022-10-16T16:07:32;3.70;;;2.30;;
15408;SDS011;7803;48.130;13.788;2022-10-16T16:10:35;2.10;;;1.85;;
15408;SDS011;7803;48.130;13.788;2022-10-16T16:13:38;2.30;;;2.10;;
15408;SDS011;7803;48.130;13.788;2022-10-16T16:16:41;3.08;;;1.95;;
15408;SDS011;7803;48.130;13.788;2022-10-16T16:19:43;2.45;;;2.10;;
15408;SDS011;7803;48.130;13.788;2022-10-16T16:22:46;2.55;;;2.20;;
15408;SDS011;7803;48.130;13.788;2022-10-16T16:26:02;4.88;;;2.40;;
15408;SDS011;7803;48.130;13.788;2022-10-16T16:29:06;3.63;;;2.40;;
15408;SDS011;7803;48.130;13.788;2022-10-16T16:32:10;2.97;;;2.30;;
15408;SDS011;7803;48.130;13.788;2022-10-16T16:35:12;3.70;;;2.63;;
15408;SDS011;7803;48.130;13.788;2022-10-16T16:38:15;2.95;;;2.22;;
15408;SDS011;7803;48.130;13.788;2022-10-16T16:41:18;3.22;;;2.40;;
15408;SDS011;7803;48.130;13.788;2022-10-16T16:44:22;4.10;;;2.40;;
15408;SDS011;7803;48.130;13.788;2022-10-16T16:47:24;2.63;;;2.40;;
15408;SDS011;7803;48.130;13.788;2022-10-16T16:50:27;3.55;;;2.42;;
15408;SDS011;7803;48.130;13.788;2022-10-16T16:53:29;2.47;;;2.28;;
15408;SDS011;7803;48.130;13.788;2022-10-16T16:56:31;2.20;;;2.00;;
15408;SDS011;7803;48.130;13.788;2022-10-16T16:59:35;2.40;;;2.20;;
15408;SDS011;7803;48.130;13.788;2022-10-16T17:02:40;5.38;;;2.88;;
15408;SDS011;7803;48.130;13.788;2022-10-16T17:05:43;6.97;;;2.92;;
15408;SDS011;7803;48.130;13.788;2022-10-16T17:09:04;5.10;;;2.80;;
15408;SDS011;7803;48.130;13.788;2022-10-16T17:12:07;7.25;;;2.47;;
15408;SDS011;7803;48.130;13.788;2022-10-16T17:15:11;5.90;;;2.80;;
15408;SDS011;7803;48.130;13.788;2022-10-16T17:18:14;5.13;;;2.70;;
15408;SDS011;7803;48.130;13.788;2022-10-16T17:21:21;5.43;;;2.90;;
15408;SDS011;7803;48.130;13.788;2022-10-16T17:24:26;7.45;;;2.88;;
15408;SDS011;7803;48.130;13.788;2022-10-16T17:27:28;5.95;;;3.10;;
15408;SDS011;7803;48.130;13.788;2022-10-16T17:30:32;7.80;;;2.95;;
15408;SDS011;7803;48.130;13.788;2022-10-16T17:33:36;4.53;;;2.70;;
15408;SDS011;7803;48.130;13.788;2022-10-16T17:36:40;5.55;;;3.13;;
15408;SDS011;7803;48.130;13.788;2022-10-16T17:39:47;5.03;;;2.80;;
15408;SDS011;7803;48.130;13.788;2022-10-16T17:42:52;4.15;;;2.58;;
15408;SDS011;7803;48.130;13.788;2022-10-16T17:45:59;5.68;;;2.85;;
15408;SDS011;7803;48.130;13.788;2022-10-16T17:49:04;3.78;;;2.63;;
15408;SDS011;7803;48.130;13.788;2022-10-16T17:52:07;5.97;;;2.60;;
15408;SDS011;7803;48.130;13.788;2022-10-16T17:55:10;5.72;;;2.78;;
15408;SDS011;7803;48.130;13.788;2022-10-16T17:58:14;5.80;;;2.70;;
15408;SDS011;7803;48.130;13.788;2022-10-16T18:01:20;3.72;;;2.50;;
15408;SDS011;7803;48.130;13.788;2022-10-16T18:04:24;5.10;;;2.65;;
15408;SDS011;7803;48.130;13.788;2022-10-16T18:07:27;4.53;;;2.63;;
15408;SDS011;7803;48.130;13.788;2022-10-16T18:10:30;6.45;;;2.60;;
15408;SDS011;7803;48.130;13.788;2022-10-16T18:13:34;3.95;;;2.47;;
15408;SDS011;7803;48.130;13.788;2022-10-16T18:16:38;4.00;;;2.78;;
15408;SDS011;7803;48.130;13.788;2022-10-16T18:19:42;4.95;;;2.60;;
15408;SDS011;7803;48.130;13.788;2022-10-16T18:22:45;3.67;;;2.75;;
15408;SDS011;7803;48.130;13.788;2022-10-16T18:25:48;4.20;;;2.72;;
15408;SDS011;7803;48.130;13.788;2022-10-16T18:28:52;4.07;;;2.83;;
15408;SDS011;7803;48.130;13.788;2022-10-16T18:31:57;4.43;;;2.75;;
15408;SDS011;7803;48.130;13.788;2022-10-16T18:35:00;6.05;;;2.92;;
15408;SDS011;7803;48.130;13.788;2022-10-16T18:38:05;4.88;;;2.88;;
15408;SDS011;7803;48.130;13.788;2022-10-16T18:41:08;5.95;;;3.08;;
15408;SDS011;7803;48.130;13.788;2022-10-16T18:44:11;5.18;;;2.55;;
15408;SDS011;7803;48.130;13.788;2022-10-16T18:47:16;4.55;;;2.80;;
15408;SDS011;7803;48.130;13.788;2022-10-16T18:50:19;6.85;;;3.10;;
15408;SDS011;7803;48.130;13.788;2022-10-16T18:53:23;6.30;;;3.08;;
15408;SDS011;7803;48.130;13.788;2022-10-16T18:56:27;4.85;;;2.88;;
15408;SDS011;7803;48.130;13.788;2022-10-16T18:59:31;4.60;;;3.05;;
15408;SDS011;7803;48.130;13.788;2022-10-16T19:02:40;4.80;;;2.78;;
15408;SDS011;7803;48.130;13.788;2022-10-16T19:05:43;5.45;;;3.13;;
15408;SDS011;7803;48.130;13.788;2022-10-16T19:08:47;5.25;;;2.65;;
15408;SDS011;7803;48.130;13.788;2022-10-16T19:11:50;5.65;;;2.95;;
15408;SDS011;7803;48.130;13.788;2022-10-16T19:14:53;3.80;;;2.78;;
15408;SDS011;7803;48.130;13.788;2022-10-16T19:17:58;4.55;;;3.05;;
15408;SDS011;7803;48.130;13.788;2022-10-16T19:21:02;4.82;;;3.05;;
15408;SDS011;7803;48.130;13.788;2022-10-16T19:24:07;5.32;;;2.90;;
15408;SDS011;7803;48.130;13.788;2022-10-16T19:27:13;4.55;;;3.30;;
15408;SDS011;7803;48.130;13.788;2022-10-16T19:30:15;3.63;;;3.03;;
15408;SDS011;7803;48.130;13.788;2022-10-16T19:33:20;4.35;;;3.17;;
15408;SDS011;7803;48.130;13.788;2022-10-16T19:36:24;4.40;;;3.40;;
15408;SDS011;7803;48.130;13.788;2022-10-16T19:39:27;5.13;;;3.03;;
15408;SDS011;7803;48.130;13.788;2022-10-16T19:42:31;5.70;;;3.83;;
15408;SDS011;7803;48.130;13.788;2022-10-16T19:45:33;5.95;;;3.75;;
15408;SDS011;7803;48.130;13.788;2022-10-16T19:48:37;11.10;;;4.40;;
15408;SDS011;7803;48.130;13.788;2022-10-16T19:51:40;8.93;;;4.10;;
15408;SDS011;7803;48.130;13.788;2022-10-16T19:54:42;7.43;;;3.80;;
15408;SDS011;7803;48.130;13.788;2022-10-16T19:57:44;7.03;;;3.90;;
15408;SDS011;7803;48.130;13.788;2022-10-16T20:00:47;5.45;;;3.88;;
15408;SDS011;7803;48.130;13.788;2022-10-16T20:03:50;5.82;;;4.00;;
15408;SDS011;7803;48.130;13.788;2022-10-16T20:06:52;7.63;;;4.43;;
15408;SDS011;7803;48.130;13.788;2022-10-16T20:09:55;5.57;;;4.00;;
15408;SDS011;7803;48.130;13.788;2022-10-16T20:12:57;6.25;;;4.20;;
15408;SDS011;7803;48.130;13.788;2022-10-16T20:16:01;5.10;;;4.00;;
15408;SDS011;7803;48.130;13.788;2022-10-16T20:19:05;5.28;;;4.00;;
15408;SDS011;7803;48.130;13.788;2022-10-16T20:22:07;6.30;;;4.22;;
15408;SDS011;7803;48.130;13.788;2022-10-16T20:25:09;5.32;;;4.38;;
15408;SDS011;7803;48.130;13.788;2022-10-16T20:28:12;6.70;;;4.57;;
15408;SDS011;7803;48.130;13.788;2022-10-16T20:31:16;8.23;;;5.03;;
15408;SDS011;7803;48.130;13.788;2022-10-16T20:34:23;9.50;;;5.00;;
15408;SDS011;7803;48.130;13.788;2022-10-16T20:37:25;7.25;;;4.97;;
15408;SDS011;7803;48.130;13.788;2022-10-16T20:40:27;6.53;;;5.10;;
15408;SDS011;7803;48.130;13.788;2022-10-16T20:43:29;5.80;;;5.00;;
15408;SDS011;7803;48.130;13.788;2022-10-16T20:46:31;5.97;;;5.00;;
15408;SDS011;7803;48.130;13.788;2022-10-16T20:49:35;6.55;;;5.03;;
15408;SDS011;7803;48.130;13.788;2022-10-16T20:52:37;7.10;;;5.07;;
15408;SDS011;7803;48.130;13.788;2022-10-16T20:55:39;6.05;;;4.75;;
15408;SDS011;7803;48.130;13.788;2022-10-16T20:58:41;7.10;;;4.93;;
15408;SDS011;7803;48.130;13.788;2022-10-16T21:01:44;6.43;;;5.40;;
15408;SDS011;7803;48.130;13.788;2022-10-16T21:04:47;6.32;;;5.53;;
15408;SDS011;7803;48.130;13.788;2022-10-16T21:07:49;8.32;;;5.25;;
15408;SDS011;7803;48.130;13.788;2022-10-16T21:10:51;6.45;;;5.00;;
15408;SDS011;7803;48.130;13.788;2022-10-16T21:13:54;5.60;;;4.95;;
15408;SDS011;7803;48.130;13.788;2022-10-16T21:16:57;5.57;;;5.00;;
15408;SDS011;7803;48.130;13.788;2022-10-16T21:20:01;8.60;;;5.25;;
15408;SDS011;7803;48.130;13.788;2022-10-16T21:23:04;9.05;;;5.50;;
15408;SDS011;7803;48.130;13.788;2022-10-16T21:26:06;6.53;;;4.97;;
15408;SDS011;7803;48.130;13.788;2022-10-16T21:29:08;7.82;;;5.50;;
15408;SDS011;7803;48.130;13.788;2022-10-16T21:32:10;6.85;;;5.32;;
15408;SDS011;7803;48.130;13.788;2022-10-16T21:35:14;6.03;;;5.32;;
15408;SDS011;7803;48.130;13.788;2022-10-16T21:38:16;6.60;;;5.65;;
15408;SDS011;7803;48.130;13.788;2022-10-16T21:41:19;7.43;;;5.72;;
15408;SDS011;7803;48.130;13.788;2022-10-16T21:44:23;6.50;;;5.47;;
15408;SDS011;7803;48.130;13.788;2022-10-16T21:47:25;8.18;;;5.40;;